Aérodrome :
LOGIN :

S'inscrire | Disclaimer

   EN    FR    IT 

 










Légende :    VFR   VFR Marginal   IFR   IFR Intensif   IFR Très Intensif
Visi : 
Plafond : 
>= 8 km
>= 3000ft
5 à 8 km
1000 à 3000 ft
1500m à 5 km
500 à 1000 ft
800 à 1500m
200 à 500 ft
< 800m
< 200 ft
Symboles :   Orages  Brouillard  Fortes neiges  Fortes précipitations  Vent > 20 kt
SIGMETs :   Divers  Orages  Givrage  Turbulence  Onde Orograph.  Cendres Volcan.






- Altitude de l'aérodrome : 741 ft
- Code IATA : JKG


ESGJ - Jönköping

DERNIER METAR :
  • 151250Z 08008KT 9999 SCT012 BKN022 05/04 Q1019

METARs EXPIRÉS :
  • 151220Z 08008KT 9999 BKN013 05/04 Q1019
  • 151150Z 08009KT 9999 BKN014 05/04 Q1020
  • 151120Z 09007KT 9999 BKN011 05/04 Q1020
  • 151050Z 10006KT 9999 BKN008 04/04 Q1020

TAF TAF ESGJ
Valide du 15 à 12h jusqu'au 15 à 21h UTC


151130Z 1512/1521 08005KT 9999 BKN008
BECMG 1512/1514 BKN025
PROB40 1517/1519 BKN007
BECMG 1519/1521 BKN004



MET'MAP, la Météo Aéronautique d'un coup d'oeil ! - Copyright ORBIFLY Décembre 2007 - Disclaimer

ORBIFLY MET'MAP TEAM :

Programmation & Développement : Alexandra Zaïnal
Conception & Développement : Baudouin d'Aumeries
Co-Programmation & Développement : Marc-Olivier Méhu
Soutien technique & logistique : Manuel Goepfert

Contact : metmap@orbifly.com




SOURCES & CREDITS :

   NOAA